logo
Search for airport 
image banner adimage banner adimage banner ad
image banner ad

FLSH - Shiwa Ngandu

Located in Shiwa Ngamu, Zambia

ICAO - FLSH, IATA -

Data provided by Airmate  

General information

Coordinates: S11°12'3" E31°45'3"
Elevation is 4600 feet MSL.
Magnetic variation is -3° East
View others Airports in Northern Province

Operational data

Special qualification required
Current time UTC:
Current local time:
Weather at : - ( 0 km )
METAR: OPLA 130725Z 33020KT 5000 HZ SCT040 BKN100 28/12 Q1012 TEMPO 32015G30KT RMK QFE986 A29.90
View NOTAMs / SUP AIP / TFR affecting this airport [VIEW]
Communications frequencies: [VIEW]

Runways:

RWY identifierQFULength (ft)Width (ft)SurfaceLDA (ft)
1080°32800DIRT
28260°32800DIRT

Airport contact information

Address: Shiwa Ngamu Zambia

Satellite view of FLSH